Time;durP1;ratioP1;P1;durP2;ratioP2;P2;SDS_P1;SDS_P2;PMS_P1;PMS_P2;Temp;Humidity;BMP_temperature;BMP_pressure;BME280_temperature;BME280_humidity;BME280_pressure;Samples;Min_cycle;Max_cycle;Signal;HPM_P1;HPM_P2
2023/04/01 00:02:21;;;;;;;;;;;10.60;91.00;;;;;;5044193;28;20351;-73
2023/04/01 00:04:48;;;;;;;;;;;10.50;91.00;;;;;;5044159;28;20858;-71
2023/04/01 00:07:18;;;;;;;;;;;10.50;91.00;;;;;;5043907;28;20739;-73
2023/04/01 00:09:44;;;;;;;;;;;10.50;91.00;;;;;;5033993;28;20848;-74
2023/04/01 00:12:11;;;;;;;;;;;10.50;91.00;;;;;;5039538;28;19979;-72
2023/04/01 00:14:39;;;;;;;;;;;10.50;91.00;;;;;;5034671;28;20201;-72
2023/04/01 00:17:06;;;;;;;;;;;10.60;91.00;;;;;;5037510;28;20310;-73
2023/04/01 00:19:32;;;;;;;;;;;10.50;91.00;;;;;;5038341;28;19936;-74
2023/04/01 00:21:59;;;;;;;;;;;10.50;91.00;;;;;;5041826;28;19929;-74
2023/04/01 00:24:27;;;;;;;;;;;10.50;91.00;;;;;;5041963;28;20497;-72
2023/04/01 00:26:53;;;;;;;;;;;10.50;91.00;;;;;;5047215;28;19939;-72
2023/04/01 00:29:20;;;;;;;;;;;10.40;91.00;;;;;;5041254;28;19948;-71
2023/04/01 00:31:48;;;;;;;;;;;10.50;91.10;;;;;;5038156;28;20382;-70
2023/04/01 00:34:14;;;;;;;;;;;10.50;91.10;;;;;;5040032;28;19932;-73
2023/04/01 00:36:41;;;;;;;;;;;10.40;91.40;;;;;;5039977;28;19932;-71
2023/04/01 00:39:07;;;;;;;;;;;10.50;91.10;;;;;;5047501;28;19929;-72
2023/04/01 00:41:36;;;;;;;;;;;10.50;91.10;;;;;;5051274;28;19933;-73
2023/04/01 00:44:19;;;;;;;;;;;10.50;91.10;;;;;;5049114;28;19935;-74
2023/04/01 00:46:45;;;;;;;;;;;10.50;91.10;;;;;;5045378;28;19928;-73
2023/04/01 00:49:13;;;;;;;;;;;10.40;91.10;;;;;;5047801;28;19929;-71
2023/04/01 00:51:40;;;;;;;;;;;10.40;91.10;;;;;;5043138;28;19933;-73
2023/04/01 00:54:07;;;;;;;;;;;10.40;91.10;;;;;;5046948;28;19971;-70
2023/04/01 00:56:36;;;;;;;;;;;10.40;91.20;;;;;;5045846;28;19936;-71
2023/04/01 00:59:05;;;;;;;;;;;10.40;91.20;;;;;;5046019;28;20471;-74
2023/04/01 01:01:33;;;;;;;;;;;10.40;91.20;;;;;;5049099;28;19929;-73
2023/04/01 01:04:00;;;;;;;;;;;10.40;91.20;;;;;;5046933;28;19939;-73
2023/04/01 01:06:32;;;;;;;;;;;10.40;91.20;;;;;;5044217;28;19982;-74
2023/04/01 01:09:13;;;;;;;;;;;10.40;91.20;;;;;;5043707;28;19933;-74
2023/04/01 01:11:42;;;;;;;;;;;10.40;91.20;;;;;;5038886;28;19933;-71
2023/04/01 01:14:13;;;;;;;;;;;10.40;91.20;;;;;;5045231;28;20432;-70
2023/04/01 01:16:43;;;;;;;;;;;10.40;91.20;;;;;;5040592;28;19929;-70
2023/04/01 01:19:15;;;;;;;;;;;10.40;91.20;;;;;;5035418;28;19936;-72
2023/04/01 01:22:00;;;;;;;;;;;10.40;91.20;;;;;;5036070;28;19939;-71
2023/04/01 01:24:31;;;;;;;;;;;10.40;91.30;;;;;;5021362;28;20801;-74
2023/04/01 01:27:03;;;;;;;;;;;10.40;91.30;;;;;;5039606;28;19928;-72
2023/04/01 01:29:42;;;;;;;;;;;10.40;91.30;;;;;;5045353;28;19953;-73
2023/04/01 01:32:12;;;;;;;;;;;10.40;91.30;;;;;;5043588;28;19929;-72
2023/04/01 01:34:46;;;;;;;;;;;10.40;91.30;;;;;;5036900;28;19940;-71
2023/04/01 01:37:15;;;;;;;;;;;10.40;91.30;;;;;;5046889;28;19928;-70
2023/04/01 01:39:43;;;;;;;;;;;10.40;91.40;;;;;;5038283;28;19939;-71
2023/04/01 01:42:11;;;;;;;;;;;10.40;91.40;;;;;;5032789;28;20412;-71
2023/04/01 01:44:39;;;;;;;;;;;10.40;91.40;;;;;;5044002;28;19936;-71
2023/04/01 01:47:06;;;;;;;;;;;10.30;91.40;;;;;;5041013;28;20452;-73
2023/04/01 01:49:33;;;;;;;;;;;10.30;91.40;;;;;;5041265;28;19929;-73
2023/04/01 01:52:00;;;;;;;;;;;10.40;91.50;;;;;;5041514;28;19979;-74
2023/04/01 01:54:28;;;;;;;;;;;10.20;91.50;;;;;;5042767;28;19935;-70
2023/04/01 01:56:58;;;;;;;;;;;10.30;91.50;;;;;;5044379;28;19933;-72
2023/04/01 01:59:25;;;;;;;;;;;10.30;91.50;;;;;;5042315;28;19929;-72
2023/04/01 02:01:55;;;;;;;;;;;10.40;91.50;;;;;;5041267;28;19929;-71
2023/04/01 02:04:22;;;;;;;;;;;10.30;91.50;;;;;;5043207;28;19933;-72
2023/04/01 02:06:52;;;;;;;;;;;10.30;91.60;;;;;;5045090;28;19928;-72
2023/04/01 02:09:19;;;;;;;;;;;10.30;91.50;;;;;;5038669;28;20032;-72
2023/04/01 02:11:49;;;;;;;;;;;10.30;91.60;;;;;;5042698;28;19936;-70
2023/04/01 02:14:17;;;;;;;;;;;10.30;91.60;;;;;;5041435;28;19933;-72
2023/04/01 02:16:46;;;;;;;;;;;10.30;91.60;;;;;;5043895;28;20645;-71
2023/04/01 02:19:14;;;;;;;;;;;10.30;91.60;;;;;;5041227;28;19932;-72
2023/04/01 02:21:42;;;;;;;;;;;10.30;91.50;;;;;;5040371;28;19933;-71
2023/04/01 02:24:11;;;;;;;;;;;10.40;91.50;;;;;;5038601;28;20558;-69
2023/04/01 02:26:38;;;;;;;;;;;10.30;91.50;;;;;;5044133;28;19936;-71
2023/04/01 02:29:07;;;;;;;;;;;10.30;91.40;;;;;;5037046;28;19933;-74
2023/04/01 02:31:35;;;;;;;;;;;10.30;91.40;;;;;;5044158;28;19972;-73
2023/04/01 02:34:02;;;;;;;;;;;10.30;91.30;;;;;;5041953;28;19954;-73
2023/04/01 02:36:29;;;;;;;;;;;10.30;91.30;;;;;;5047465;28;19929;-72
2023/04/01 02:38:59;;;;;;;;;;;10.30;91.20;;;;;;5041155;28;19940;-70
2023/04/01 02:41:26;;;;;;;;;;;10.20;91.00;;;;;;5040630;28;19932;-74
2023/04/01 02:43:52;;;;;;;;;;;10.30;91.00;;;;;;5045642;28;19933;-70
2023/04/01 02:46:20;;;;;;;;;;;10.20;90.90;;;;;;5042056;28;19928;-71
2023/04/01 02:48:46;;;;;;;;;;;10.20;90.80;;;;;;5038730;28;19936;-74
2023/04/01 02:51:13;;;;;;;;;;;10.20;90.80;;;;;;5037581;28;19936;-72
2023/04/01 02:53:40;;;;;;;;;;;10.20;90.70;;;;;;5042683;28;19929;-69
2023/04/01 02:56:06;;;;;;;;;;;10.20;90.70;;;;;;5038227;28;20627;-70
2023/04/01 02:58:33;;;;;;;;;;;10.20;90.70;;;;;;5036839;28;20716;-74
2023/04/01 03:00:59;;;;;;;;;;;10.20;90.60;;;;;;5038715;28;19929;-72
2023/04/01 03:03:27;;;;;;;;;;;10.20;90.60;;;;;;5041999;28;19929;-73
2023/04/01 03:05:55;;;;;;;;;;;10.20;90.60;;;;;;5035876;28;19952;-72
2023/04/01 03:08:22;;;;;;;;;;;10.20;90.50;;;;;;5032996;28;19924;-70
2023/04/01 03:10:48;;;;;;;;;;;10.20;90.50;;;;;;5039243;28;20413;-70
2023/04/01 03:13:15;;;;;;;;;;;10.20;90.40;;;;;;5036467;28;19928;-71
2023/04/01 03:15:42;;;;;;;;;;;10.20;90.40;;;;;;5036758;28;19932;-71
2023/04/01 03:18:08;;;;;;;;;;;10.20;90.30;;;;;;5035601;28;19933;-72
2023/04/01 03:20:36;;;;;;;;;;;10.20;90.40;;;;;;5040095;28;19929;-72
2023/04/01 03:23:03;;;;;;;;;;;10.10;90.30;;;;;;5032871;28;21678;-72
2023/04/01 03:25:30;;;;;;;;;;;10.20;90.30;;;;;;5033905;28;20406;-70
2023/04/01 03:27:59;;;;;;;;;;;10.20;90.30;;;;;;5037862;28;19929;-73
2023/04/01 03:30:26;;;;;;;;;;;10.20;90.30;;;;;;5033006;28;19932;-69
2023/04/01 03:32:52;;;;;;;;;;;10.10;90.30;;;;;;5034447;28;19936;-73
2023/04/01 03:35:19;;;;;;;;;;;10.20;90.30;;;;;;5036094;28;19935;-71
2023/04/01 03:37:47;;;;;;;;;;;10.20;90.30;;;;;;5044910;28;20337;-73
2023/04/01 03:40:13;;;;;;;;;;;10.20;90.30;;;;;;5034232;28;20390;-71
2023/04/01 03:42:40;;;;;;;;;;;10.20;90.30;;;;;;5034381;28;19951;-72
2023/04/01 03:45:07;;;;;;;;;;;10.10;90.30;;;;;;5034069;28;20772;-70
2023/04/01 03:47:33;;;;;;;;;;;10.10;90.20;;;;;;5036135;28;20201;-73
2023/04/01 03:50:00;;;;;;;;;;;10.10;90.20;;;;;;5037562;28;20685;-73
2023/04/01 03:52:26;;;;;;;;;;;10.10;90.20;;;;;;5042210;28;19935;-72
2023/04/01 03:54:54;;;;;;;;;;;10.10;90.30;;;;;;5036348;28;20338;-69
2023/04/01 03:57:21;;;;;;;;;;;10.10;90.30;;;;;;5039707;28;19976;-72
2023/04/01 03:59:47;;;;;;;;;;;10.10;90.30;;;;;;5038264;28;19933;-71
2023/04/01 04:02:14;;;;;;;;;;;10.10;90.30;;;;;;5036404;28;19936;-74
2023/04/01 04:04:41;;;;;;;;;;;10.20;90.40;;;;;;5038193;28;20852;-72
2023/04/01 04:07:07;;;;;;;;;;;10.10;90.40;;;;;;5039824;28;19928;-70
2023/04/01 04:09:34;;;;;;;;;;;10.10;90.40;;;;;;5039885;28;19931;-73
2023/04/01 04:12:02;;;;;;;;;;;10.10;90.70;;;;;;5042841;28;19936;-72
2023/04/01 04:14:28;;;;;;;;;;;10.10;90.40;;;;;;5042670;28;19928;-73
2023/04/01 04:16:55;;;;;;;;;;;10.10;90.40;;;;;;5042758;28;19932;-72
2023/04/01 04:19:21;;;;;;;;;;;10.10;90.30;;;;;;5046152;28;19929;-72
2023/04/01 04:21:48;;;;;;;;;;;10.10;90.30;;;;;;5044667;28;19925;-72
2023/04/01 04:24:14;;;;;;;;;;;10.00;90.30;;;;;;5046401;28;20453;-72
2023/04/01 04:26:41;;;;;;;;;;;10.10;90.30;;;;;;5052543;28;19933;-72
2023/04/01 04:29:09;;;;;;;;;;;10.10;90.30;;;;;;5046076;28;19956;-71
2023/04/01 04:31:35;;;;;;;;;;;10.00;90.30;;;;;;5044449;28;19933;-73
2023/04/01 04:34:02;;;;;;;;;;;10.10;90.30;;;;;;5043877;28;19929;-72
2023/04/01 04:36:29;;;;;;;;;;;10.10;90.30;;;;;;5044765;28;19929;-73
2023/04/01 04:38:55;;;;;;;;;;;10.10;90.30;;;;;;5044317;28;19928;-72
2023/04/01 04:41:22;;;;;;;;;;;10.10;90.30;;;;;;5043306;28;19929;-70
2023/04/01 04:43:52;;;;;;;;;;;10.10;90.20;;;;;;5046556;28;20027;-70
2023/04/01 04:46:20;;;;;;;;;;;10.10;90.20;;;;;;5048225;28;20035;-71
2023/04/01 04:48:47;;;;;;;;;;;10.10;90.30;;;;;;5043957;28;20342;-73
2023/04/01 04:51:15;;;;;;;;;;;10.10;90.20;;;;;;5036909;28;20465;-73
2023/04/01 04:53:42;;;;;;;;;;;10.10;90.20;;;;;;5035503;28;20067;-72
2023/04/01 04:56:08;;;;;;;;;;;10.10;90.20;;;;;;5036098;28;20409;-71
2023/04/01 04:58:35;;;;;;;;;;;10.10;90.20;;;;;;5042265;28;21676;-73
2023/04/01 05:01:06;;;;;;;;;;;10.10;90.10;;;;;;5038820;28;19928;-70
2023/04/01 05:03:33;;;;;;;;;;;10.10;90.10;;;;;;5045113;28;19929;-73
2023/04/01 05:06:00;;;;;;;;;;;10.10;90.10;;;;;;5045531;28;19933;-72
2023/04/01 05:08:27;;;;;;;;;;;10.10;90.10;;;;;;5046758;28;19935;-72
2023/04/01 05:10:53;;;;;;;;;;;10.10;90.50;;;;;;5041539;28;19932;-71
2023/04/01 05:13:20;;;;;;;;;;;10.10;90.10;;;;;;5045443;28;19933;-72
2023/04/01 05:15:46;;;;;;;;;;;10.00;90.00;;;;;;5035610;28;19936;-72
2023/04/01 05:18:13;;;;;;;;;;;10.10;90.10;;;;;;5037247;28;19967;-72
2023/04/01 05:20:46;;;;;;;;;;;10.00;90.00;;;;;;5036317;28;20405;-70
2023/04/01 05:23:13;;;;;;;;;;;10.10;90.00;;;;;;5033493;28;19940;-71
2023/04/01 05:25:39;;;;;;;;;;;10.10;90.00;;;;;;5035171;28;19929;-73
2023/04/01 05:28:06;;;;;;;;;;;10.10;90.10;;;;;;5048206;28;19935;-73
2023/04/01 05:30:32;;;;;;;;;;;10.10;90.00;;;;;;5051835;28;20341;-70
2023/04/01 05:32:59;;;;;;;;;;;10.10;90.00;;;;;;5045974;28;19936;-72
2023/04/01 05:35:26;;;;;;;;;;;10.10;90.00;;;;;;5042621;28;19934;-69
2023/04/01 05:37:54;;;;;;;;;;;10.00;90.00;;;;;;5043299;28;19929;-68
2023/04/01 05:40:20;;;;;;;;;;;10.10;90.00;;;;;;5049232;28;19933;-69
2023/04/01 05:42:47;;;;;;;;;;;10.10;90.00;;;;;;5057553;28;20015;-70
2023/04/01 05:45:15;;;;;;;;;;;10.00;90.00;;;;;;5039124;28;20488;-69
2023/04/01 05:47:42;;;;;;;;;;;10.10;90.10;;;;;;5042551;28;19945;-69
2023/04/01 05:50:09;;;;;;;;;;;10.00;90.10;;;;;;5038133;28;20052;-69
2023/04/01 05:52:35;;;;;;;;;;;10.00;90.10;;;;;;5045919;28;19936;-70
2023/04/01 05:55:04;;;;;;;;;;;10.00;90.00;;;;;;5037708;28;19929;-71
2023/04/01 05:57:30;;;;;;;;;;;10.10;90.10;;;;;;5041035;28;19928;-71
2023/04/01 05:59:57;;;;;;;;;;;10.00;90.00;;;;;;5038696;28;20023;-73
2023/04/01 06:02:23;;;;;;;;;;;10.00;90.00;;;;;;5045046;28;19932;-70
2023/04/01 06:04:51;;;;;;;;;;;10.10;90.00;;;;;;5042479;28;19929;-71
2023/04/01 06:07:18;;;;;;;;;;;10.10;90.00;;;;;;5039914;28;19978;-72
2023/04/01 06:09:45;;;;;;;;;;;10.00;90.00;;;;;;5041709;28;19929;-70
2023/04/01 06:12:35;;;;;;;;;;;10.00;90.00;;;;;;5045476;28;19936;-72
2023/04/01 06:15:11;;;;;;;;;;;10.10;90.10;;;;;;5039999;28;19940;-72
2023/04/01 06:17:44;;;;;;;;;;;10.00;90.10;;;;;;5046333;28;19929;-71
2023/04/01 06:20:16;;;;;;;;;;;10.10;90.30;;;;;;5042029;28;19928;-70
2023/04/01 06:22:56;;;;;;;;;;;10.00;90.30;;;;;;5044827;28;20386;-72
2023/04/01 06:25:43;;;;;;;;;;;10.00;90.40;;;;;;5040323;28;19955;-71
2023/04/01 06:28:30;;;;;;;;;;;10.00;90.50;;;;;;5043494;28;19928;-70
2023/04/01 06:31:02;;;;;;;;;;;10.00;90.50;;;;;;5001091;28;19929;-72
2023/04/01 06:33:37;;;;;;;;;;;10.00;90.60;;;;;;5039495;28;19932;-73
2023/04/01 06:36:15;;;;;;;;;;;10.00;90.70;;;;;;5042417;28;19939;-74
2023/04/01 06:39:04;;;;;;;;;;;10.00;90.70;;;;;;5044280;28;19932;-73
2023/04/01 06:41:37;;;;;;;;;;;10.00;90.80;;;;;;5043767;28;19935;-73
2023/04/01 06:44:08;;;;;;;;;;;10.00;90.90;;;;;;5049620;28;19947;-73
2023/04/01 06:46:41;;;;;;;;;;;10.00;91.00;;;;;;5045837;28;19933;-73
2023/04/01 06:49:22;;;;;;;;;;;10.00;91.00;;;;;;5036878;28;19928;-70
2023/04/01 06:51:53;;;;;;;;;;;10.00;91.10;;;;;;5036315;28;19936;-69
2023/04/01 06:54:22;;;;;;;;;;;10.00;91.10;;;;;;5040414;28;19928;-72
2023/04/01 06:56:51;;;;;;;;;;;9.90;91.20;;;;;;5044948;28;20309;-69
2023/04/01 06:59:20;;;;;;;;;;;10.00;91.30;;;;;;5042413;28;19933;-71
2023/04/01 07:01:50;;;;;;;;;;;9.90;91.30;;;;;;5042978;28;20394;-70
2023/04/01 07:04:19;;;;;;;;;;;10.00;91.40;;;;;;5040776;28;19933;-72
2023/04/01 07:06:49;;;;;;;;;;;9.90;91.40;;;;;;5039797;28;20054;-71
2023/04/01 07:09:19;;;;;;;;;;;10.00;91.50;;;;;;5045142;28;19939;-76
2023/04/01 07:11:46;;;;;;;;;;;9.90;91.60;;;;;;5058490;28;19925;-77
2023/04/01 07:14:17;;;;;;;;;;;9.90;91.60;;;;;;5041185;28;19932;-76
2023/04/01 07:16:45;;;;;;;;;;;10.00;91.70;;;;;;5056135;28;19996;-75
2023/04/01 07:19:17;;;;;;;;;;;9.90;91.80;;;;;;5055370;28;19971;-75
2023/04/01 07:21:46;;;;;;;;;;;9.90;91.90;;;;;;5050618;28;19940;-76
2023/04/01 07:24:17;;;;;;;;;;;9.90;92.00;;;;;;5048904;28;19933;-76
2023/04/01 07:26:44;;;;;;;;;;;9.90;92.00;;;;;;5050615;28;19932;-77
2023/04/01 07:29:12;;;;;;;;;;;9.90;92.10;;;;;;5051016;28;19940;-76
2023/04/01 07:31:46;;;;;;;;;;;9.90;92.10;;;;;;5057006;28;19935;-76
2023/04/01 07:34:17;;;;;;;;;;;9.90;92.20;;;;;;5050370;28;19979;-77
2023/04/01 07:36:45;;;;;;;;;;;9.80;92.30;;;;;;5052344;28;19929;-75
2023/04/01 07:39:23;;;;;;;;;;;9.90;92.50;;;;;;5052784;28;19940;-76
2023/04/01 07:41:52;;;;;;;;;;;9.90;92.60;;;;;;5051483;28;19936;-76
2023/04/01 07:44:23;;;;;;;;;;;10.50;93.00;;;;;;5050134;28;19936;-77
2023/04/01 07:46:55;;;;;;;;;;;9.90;92.90;;;;;;5059338;28;20306;-76
2023/04/01 07:49:28;;;;;;;;;;;9.90;93.00;;;;;;5038845;28;19925;-81
2023/04/01 07:51:58;;;;;;;;;;;9.90;93.10;;;;;;5058509;28;19933;-79
2023/04/01 07:54:30;;;;;;;;;;;9.90;93.30;;;;;;5048914;28;20513;-78
2023/04/01 07:56:59;;;;;;;;;;;9.90;93.40;;;;;;5046154;28;19932;-78
2023/04/01 07:59:28;;;;;;;;;;;10.20;93.50;;;;;;5057573;28;19932;-80
2023/04/01 08:01:59;;;;;;;;;;;9.80;93.50;;;;;;5060486;28;19932;-79
2023/04/01 08:04:33;;;;;;;;;;;9.80;93.60;;;;;;5051312;28;19940;-79
2023/04/01 08:07:02;;;;;;;;;;;9.80;93.70;;;;;;5030950;28;19933;-78
2023/04/01 08:09:33;;;;;;;;;;;9.80;93.90;;;;;;5041637;28;19939;-76
2023/04/01 08:12:04;;;;;;;;;;;9.80;94.00;;;;;;5041707;28;19928;-78
2023/04/01 08:14:37;;;;;;;;;;;9.80;94.10;;;;;;5041284;28;19940;-77
2023/04/01 08:17:06;;;;;;;;;;;9.80;94.10;;;;;;5037038;28;19945;-77
2023/04/01 08:19:42;;;;;;;;;;;9.80;94.20;;;;;;5052951;28;19959;-80
2023/04/01 08:22:10;;;;;;;;;;;9.80;94.20;;;;;;5049904;28;20027;-76
2023/04/01 08:24:41;;;;;;;;;;;9.80;94.30;;;;;;5044403;28;19951;-79
2023/04/01 08:27:12;;;;;;;;;;;9.80;94.30;;;;;;5050375;28;19928;-77
2023/04/01 08:29:41;;;;;;;;;;;9.80;94.40;;;;;;5048710;28;19940;-78
2023/04/01 08:32:10;;;;;;;;;;;9.80;94.40;;;;;;5051550;28;19928;-78
2023/04/01 08:34:40;;;;;;;;;;;9.70;94.50;;;;;;5050023;28;19979;-79
2023/04/01 08:37:09;;;;;;;;;;;9.80;94.60;;;;;;5055459;28;19951;-78
2023/04/01 08:39:38;;;;;;;;;;;9.80;94.80;;;;;;5049984;28;19928;-80
2023/04/01 08:42:18;;;;;;;;;;;9.80;94.90;;;;;;5059047;28;20723;-80
2023/04/01 08:45:00;;;;;;;;;;;9.70;95.00;;;;;;5058113;28;19940;-78
2023/04/01 08:47:47;;;;;;;;;;;9.80;95.10;;;;;;5037618;28;20379;-78
2023/04/01 08:50:34;;;;;;;;;;;9.80;95.20;;;;;;5043886;28;19929;-78
2023/04/01 08:53:04;;;;;;;;;;;9.70;95.30;;;;;;5044265;28;19932;-77
2023/04/01 08:55:52;;;;;;;;;;;9.70;95.40;;;;;;5046263;28;19959;-78
2023/04/01 08:58:36;;;;;;;;;;;9.70;95.50;;;;;;5036850;28;19940;-76
2023/04/01 09:01:11;;;;;;;;;;;9.70;95.60;;;;;;5049131;28;19944;-78
2023/04/01 09:03:55;;;;;;;;;;;9.80;95.70;;;;;;5043726;28;19933;-77
2023/04/01 09:06:30;;;;;;;;;;;9.80;95.70;;;;;;5049761;28;19939;-77
2023/04/01 09:09:11;;;;;;;;;;;9.80;95.70;;;;;;5037365;28;19929;-77
2023/04/01 09:11:53;;;;;;;;;;;9.80;95.70;;;;;;5016996;28;19974;-77
2023/04/01 09:14:36;;;;;;;;;;;9.80;95.90;;;;;;5053692;28;19929;-77
2023/04/01 09:17:09;;;;;;;;;;;9.80;95.60;;;;;;5039624;28;19929;-72
2023/04/01 09:19:46;;;;;;;;;;;9.80;95.60;;;;;;5036087;28;19936;-71
2023/04/01 09:22:23;;;;;;;;;;;9.90;95.70;;;;;;5038666;28;19929;-69
2023/04/01 09:25:10;;;;;;;;;;;9.90;95.80;;;;;;5038949;28;19929;-69
2023/04/01 09:27:44;;;;;;;;;;;9.90;95.80;;;;;;5042463;28;20801;-69
2023/04/01 09:30:25;;;;;;;;;;;9.90;95.90;;;;;;5045176;28;19929;-68
2023/04/01 09:33:07;;;;;;;;;;;9.90;95.90;;;;;;5037628;28;19928;-70
2023/04/01 09:35:39;;;;;;;;;;;9.90;95.80;;;;;;5036441;28;19933;-72
2023/04/01 09:38:16;;;;;;;;;;;10.00;95.90;;;;;;5044204;28;20344;-71
2023/04/01 09:40:47;;;;;;;;;;;9.90;95.90;;;;;;5041635;28;19932;-68
2023/04/01 09:43:21;;;;;;;;;;;9.90;95.90;;;;;;5046261;28;19936;-69
2023/04/01 09:45:52;;;;;;;;;;;10.00;96.00;;;;;;5036891;28;20684;-70
2023/04/01 09:48:30;;;;;;;;;;;10.00;96.00;;;;;;5051510;28;19939;-69
2023/04/01 09:51:02;;;;;;;;;;;9.90;96.00;;;;;;5047139;28;19928;-69
2023/04/01 09:53:34;;;;;;;;;;;10.00;96.00;;;;;;5046704;28;20276;-72
2023/04/01 09:56:22;;;;;;;;;;;10.00;96.10;;;;;;5042700;28;19936;-70
2023/04/01 09:58:59;;;;;;;;;;;10.00;96.20;;;;;;5042118;28;19958;-69
2023/04/01 10:01:38;;;;;;;;;;;10.00;96.30;;;;;;5042663;28;19932;-69
2023/04/01 10:04:16;;;;;;;;;;;10.00;96.40;;;;;;5047237;28;19933;-73
2023/04/01 10:06:57;;;;;;;;;;;10.00;96.40;;;;;;5041784;28;20406;-69
2023/04/01 10:09:43;;;;;;;;;;;10.00;96.70;;;;;;5039415;28;19929;-69
2023/04/01 10:12:23;;;;;;;;;;;10.00;96.40;;;;;;5036410;28;19944;-72
2023/04/01 10:15:10;;;;;;;;;;;10.00;96.40;;;;;;5042296;28;21312;-70
2023/04/01 10:17:50;;;;;;;;;;;10.10;96.50;;;;;;5012489;28;19936;-71
2023/04/01 10:20:31;;;;;;;;;;;10.00;96.50;;;;;;5045086;28;19928;-70
2023/04/01 10:23:16;;;;;;;;;;;10.00;96.40;;;;;;5041635;28;19940;-72
2023/04/01 10:25:57;;;;;;;;;;;10.00;96.40;;;;;;5039143;28;20450;-79
2023/04/01 10:28:41;;;;;;;;;;;10.10;96.40;;;;;;5041586;28;19928;-78
2023/04/01 10:31:19;;;;;;;;;;;10.10;96.30;;;;;;5046669;28;20458;-79
2023/04/01 10:34:03;;;;;;;;;;;10.10;96.40;;;;;;5048460;28;19940;-79
2023/04/01 10:36:48;;;;;;;;;;;10.10;96.40;;;;;;5057839;28;20309;-78
2023/04/01 10:39:32;;;;;;;;;;;10.20;96.40;;;;;;5043025;28;20574;-78
2023/04/01 10:42:09;;;;;;;;;;;10.20;96.40;;;;;;5044064;28;19959;-78
2023/04/01 10:44:53;;;;;;;;;;;10.20;96.40;;;;;;5050643;28;19933;-79
2023/04/01 10:47:54;;;;;;;;;;;10.20;96.40;;;;;;5042399;28;19933;-79
2023/04/01 10:50:25;;;;;;;;;;;10.20;96.40;;;;;;5035101;28;20558;-78
2023/04/01 10:53:10;;;;;;;;;;;10.20;96.40;;;;;;5034805;28;20484;-78
2023/04/01 10:55:45;;;;;;;;;;;10.20;96.40;;;;;;5050878;28;20285;-77
2023/04/01 10:58:27;;;;;;;;;;;10.20;96.40;;;;;;5044828;28;19929;-78
2023/04/01 11:01:03;;;;;;;;;;;10.20;96.50;;;;;;5044636;28;19936;-78
2023/04/01 11:03:52;;;;;;;;;;;10.20;96.50;;;;;;5040466;28;20383;-80
2023/04/01 11:06:42;;;;;;;;;;;10.20;96.60;;;;;;5053534;28;19951;-77
2023/04/01 11:09:25;;;;;;;;;;;10.20;96.70;;;;;;5038164;28;19925;-79
2023/04/01 11:12:18;;;;;;;;;;;10.20;96.70;;;;;;5050516;28;20443;-78
2023/04/01 11:15:11;;;;;;;;;;;10.20;96.90;;;;;;5035215;28;19931;-78
2023/04/01 11:18:05;;;;;;;;;;;10.20;96.80;;;;;;5045713;28;19925;-76
2023/04/01 11:20:41;;;;;;;;;;;10.30;96.90;;;;;;5000072;28;19933;-78
2023/04/01 11:23:19;;;;;;;;;;;10.30;96.90;;;;;;5037595;28;19929;-78
2023/04/01 11:25:49;;;;;;;;;;;10.20;96.90;;;;;;5036253;28;19929;-78
2023/04/01 11:28:35;;;;;;;;;;;10.30;96.90;;;;;;5043985;28;19929;-78
2023/04/01 11:31:12;;;;;;;;;;;10.20;96.90;;;;;;5033918;28;19928;-78
2023/04/01 11:33:41;;;;;;;;;;;10.20;96.90;;;;;;5043779;28;19940;-78
2023/04/01 11:36:12;;;;;;;;;;;10.30;96.90;;;;;;5038001;28;19940;-79
2023/04/01 11:38:46;;;;;;;;;;;10.30;97.00;;;;;;5034164;28;19928;-79
2023/04/01 11:41:21;;;;;;;;;;;10.20;97.00;;;;;;5035791;28;19920;-79
2023/04/01 11:43:55;;;;;;;;;;;10.20;97.10;;;;;;5042035;28;20773;-78
2023/04/01 11:46:26;;;;;;;;;;;10.30;97.20;;;;;;5028826;28;19937;-78
2023/04/01 11:48:59;;;;;;;;;;;10.30;97.20;;;;;;5021377;28;19929;-76
2023/04/01 11:51:33;;;;;;;;;;;10.30;97.30;;;;;;5024264;28;20295;-77
2023/04/01 11:54:05;;;;;;;;;;;10.30;97.40;;;;;;5020993;28;19930;-81
2023/04/01 11:56:37;;;;;;;;;;;10.30;97.40;;;;;;5023703;28;20007;-77
2023/04/01 11:59:30;;;;;;;;;;;10.30;97.50;;;;;;5020006;28;19940;-77
2023/04/01 12:02:00;;;;;;;;;;;10.20;97.50;;;;;;5031461;28;19929;-80
2023/04/01 12:04:41;;;;;;;;;;;10.30;97.70;;;;;;5030183;28;19933;-78
2023/04/01 12:07:14;;;;;;;;;;;10.30;97.70;;;;;;5018662;28;19933;-78
2023/04/01 12:09:48;;;;;;;;;;;10.30;97.80;;;;;;5029070;28;19940;-76
2023/04/01 12:12:18;;;;;;;;;;;10.30;97.80;;;;;;5031417;28;19929;-77
2023/04/01 12:14:51;;;;;;;;;;;10.30;97.80;;;;;;5036420;28;19944;-77
2023/04/01 12:17:28;;;;;;;;;;;10.30;97.90;;;;;;5038781;28;19935;-78
2023/04/01 12:19:58;;;;;;;;;;;10.20;97.90;;;;;;5044798;28;19928;-77
2023/04/01 12:22:38;;;;;;;;;;;10.30;98.00;;;;;;5038421;28;19936;-80
2023/04/01 12:25:12;;;;;;;;;;;10.30;98.30;;;;;;5041135;28;19928;-78
2023/04/01 12:27:42;;;;;;;;;;;10.30;98.00;;;;;;5039559;28;19925;-76
2023/04/01 12:30:27;;;;;;;;;;;10.30;98.00;;;;;;5042451;28;20011;-77
2023/04/01 12:33:02;;;;;;;;;;;10.30;98.00;;;;;;5049298;28;19928;-75
2023/04/01 12:35:31;;;;;;;;;;;10.30;98.00;;;;;;5049644;28;20016;-76
2023/04/01 12:38:05;;;;;;;;;;;10.30;98.00;;;;;;5045985;28;19928;-80
2023/04/01 12:40:38;;;;;;;;;;;10.30;98.00;;;;;;5042833;28;19929;-80
2023/04/01 12:43:35;;;;;;;;;;;10.40;98.00;;;;;;5045351;28;20489;-78
2023/04/01 12:46:10;;;;;;;;;;;10.40;97.90;;;;;;4982810;28;19937;-78
2023/04/01 12:49:00;;;;;;;;;;;10.40;97.90;;;;;;5028446;28;19921;-79
2023/04/01 12:51:44;;;;;;;;;;;10.40;97.90;;;;;;4976381;28;19937;-78
2023/04/01 12:54:30;;;;;;;;;;;10.40;97.90;;;;;;5035722;28;19928;-76
2023/04/01 12:57:06;;;;;;;;;;;10.40;97.90;;;;;;5036448;28;20387;-78
2023/04/01 12:59:38;;;;;;;;;;;10.40;97.90;;;;;;5036541;28;20426;-76
2023/04/01 13:02:13;;;;;;;;;;;10.40;97.90;;;;;;5030502;28;19940;-77
2023/04/01 13:04:49;;;;;;;;;;;10.40;97.90;;;;;;5045155;28;19984;-80
2023/04/01 13:07:34;;;;;;;;;;;10.40;98.20;;;;;;5057508;28;19935;-77
2023/04/01 13:10:03;;;;;;;;;;;10.40;97.90;;;;;;5045639;28;19935;-79
2023/04/01 13:12:41;;;;;;;;;;;10.40;97.80;;;;;;5037072;28;19976;-76
2023/04/01 13:15:22;;;;;;;;;;;10.40;97.80;;;;;;5039839;28;19929;-76
2023/04/01 13:17:53;;;;;;;;;;;10.40;97.80;;;;;;5045350;28;19928;-78
2023/04/01 13:20:24;;;;;;;;;;;10.50;97.80;;;;;;5043253;28;20004;-75
2023/04/01 13:22:56;;;;;;;;;;;10.50;97.80;;;;;;5034652;28;19971;-77
2023/04/01 13:25:28;;;;;;;;;;;10.40;97.70;;;;;;5035890;28;19936;-76
2023/04/01 13:27:57;;;;;;;;;;;10.40;97.70;;;;;;5047618;28;19935;-79
2023/04/01 13:30:26;;;;;;;;;;;10.40;97.80;;;;;;5050224;28;19929;-76
2023/04/01 13:32:59;;;;;;;;;;;10.40;97.70;;;;;;5047631;28;20363;-76
2023/04/01 13:35:29;;;;;;;;;;;10.40;97.80;;;;;;5034497;28;19936;-74
2023/04/01 13:38:03;;;;;;;;;;;10.50;97.80;;;;;;5034700;28;19936;-77
2023/04/01 13:40:37;;;;;;;;;;;10.40;97.80;;;;;;5034311;28;19928;-70
2023/04/01 13:43:05;;;;;;;;;;;10.50;97.80;;;;;;5039052;28;19932;-72
2023/04/01 13:45:36;;;;;;;;;;;10.40;97.70;;;;;;5042190;28;20334;-71
2023/04/01 13:48:23;;;;;;;;;;;10.40;97.70;;;;;;5044570;28;20373;-71
2023/04/01 13:50:58;;;;;;;;;;;10.40;97.60;;;;;;5038370;28;19933;-68
2023/04/01 13:53:30;;;;;;;;;;;10.40;97.60;;;;;;5033635;28;19944;-72
2023/04/01 13:56:02;;;;;;;;;;;10.40;97.50;;;;;;5043283;28;19929;-70
2023/04/01 13:58:44;;;;;;;;;;;10.40;97.50;;;;;;5041755;28;19933;-72
2023/04/01 14:01:14;;;;;;;;;;;10.40;97.40;;;;;;5040801;28;19933;-70
2023/04/01 14:03:50;;;;;;;;;;;10.40;97.40;;;;;;5041486;28;20566;-69
2023/04/01 14:06:21;;;;;;;;;;;10.40;97.30;;;;;;5044508;28;19933;-69
2023/04/01 14:08:56;;;;;;;;;;;10.50;97.20;;;;;;5038360;28;20739;-71
2023/04/01 14:11:27;;;;;;;;;;;10.50;97.20;;;;;;5045170;28;19932;-71
2023/04/01 14:14:00;;;;;;;;;;;10.40;97.10;;;;;;5044546;28;19933;-69
2023/04/01 14:16:43;;;;;;;;;;;10.50;97.00;;;;;;5043727;28;19944;-70
2023/04/01 14:19:25;;;;;;;;;;;10.50;97.00;;;;;;5042894;28;20278;-69
2023/04/01 14:21:56;;;;;;;;;;;10.50;97.00;;;;;;5047086;28;19929;-71
2023/04/01 14:24:33;;;;;;;;;;;10.50;97.00;;;;;;5048077;28;19940;-69
2023/04/01 14:27:13;;;;;;;;;;;10.50;97.00;;;;;;5045536;28;19932;-70
2023/04/01 14:29:44;;;;;;;;;;;10.50;97.00;;;;;;5045825;28;19929;-69
2023/04/01 14:32:13;;;;;;;;;;;10.50;97.00;;;;;;5045055;28;19928;-69
2023/04/01 14:34:58;;;;;;;;;;;10.50;97.00;;;;;;5045907;28;19928;-70
2023/04/01 14:37:35;;;;;;;;;;;10.50;97.00;;;;;;5050617;28;19933;-69
2023/04/01 14:40:17;;;;;;;;;;;10.50;97.00;;;;;;5038547;28;19936;-69
2023/04/01 14:42:56;;;;;;;;;;;10.50;97.00;;;;;;5044741;28;20634;-68
2023/04/01 14:45:33;;;;;;;;;;;10.50;97.00;;;;;;5046641;28;19935;-70
2023/04/01 14:48:00;;;;;;;;;;;10.50;97.00;;;;;;5041508;28;19936;-70
2023/04/01 14:50:30;;;;;;;;;;;10.50;97.10;;;;;;5040427;28;19937;-72